Terminal Aerodrome Forecast
Issued by NWS

Home | Current Version | Previous Version | Text Only | Print | Product List | Glossary On
Versions: 1 2 3 4 5 6 7 8 9 10 11 12 13 14 15 16 17 18 19
794
FTUS44 KTSA 312325
TAFFYV
TAF
KFYV 312325Z 0100/0124 17005KT P6SM VCTS BKN250CB
     FM010900 00000KT 1SM BR OVC005
      TEMPO 0110/0114 1/2SM FG OVC002
     FM011400 VRB03KT P6SM BKN040
      TEMPO 0120/0124 3SM TSRA BR BKN025CB=

USA.gov is the U.S. government's official web portal to all federal, state and local government web resources and services.